createdAt,value
2022-08-03T00:00:24.292Z,57.35
2022-08-03T00:02:50.921Z,57.42
2022-08-03T00:05:17.611Z,57.78
2022-08-03T00:07:43.992Z,57.82
2022-08-03T00:10:12.484Z,58.13
2022-08-03T00:12:39.067Z,57.87
2022-08-03T00:15:11.514Z,58.23
2022-08-03T00:17:52.472Z,58.25
2022-08-03T00:20:21.377Z,58.43
2022-08-03T00:22:48.005Z,58.39
2022-08-03T00:25:14.592Z,58.61
2022-08-03T00:27:41.061Z,58.48
2022-08-03T00:30:08.295Z,58.53
2022-08-03T00:32:34.680Z,59.07
2022-08-03T00:35:01.137Z,59.36
2022-08-03T00:37:40.814Z,59.25
2022-08-03T00:40:12.865Z,59.49
2022-08-03T00:42:54.514Z,59.62
2022-08-03T00:45:22.998Z,59.78
2022-08-03T00:47:50.268Z,59.83
2022-08-03T00:50:18.854Z,60.26
2022-08-03T00:52:46.691Z,60.40
2022-08-03T00:55:13.314Z,60.02
2022-08-03T00:57:40.272Z,60.15
2022-08-03T01:00:08.652Z,60.58
2022-08-03T01:02:35.751Z,60.54
2022-08-03T01:05:02.151Z,60.55
2022-08-03T01:07:44.866Z,59.77
2022-08-03T01:10:32.076Z,59.88
2022-08-03T01:14:03.716Z,60.13
2022-08-03T01:16:15.701Z,60.43
2022-08-03T01:18:52.522Z,60.29
2022-08-03T01:21:59.636Z,60.21
2022-08-03T01:24:52.911Z,60.62
2022-08-03T01:27:23.068Z,60.56
2022-08-03T01:30:01.547Z,60.86
2022-08-03T01:32:58.849Z,60.89
2022-08-03T01:35:29.228Z,61.00
2022-08-03T01:38:03.332Z,60.80
2022-08-03T01:40:34.237Z,60.76
2022-08-03T01:43:04.261Z,60.70
2022-08-03T01:45:33.986Z,60.68
2022-08-03T01:48:02.421Z,60.84
2022-08-03T01:50:32.300Z,60.90
2022-08-03T01:52:59.665Z,60.83
2022-08-03T01:55:28.205Z,60.72
2022-08-03T01:58:05.518Z,60.75
2022-08-03T02:00:35.373Z,61.09
2022-08-03T02:03:04.794Z,61.27
2022-08-03T02:05:32.313Z,61.41
2022-08-03T02:08:00.661Z,61.47
2022-08-03T02:10:34.278Z,61.53
2022-08-03T02:13:05.037Z,61.80
2022-08-03T02:15:33.803Z,61.79
2022-08-03T02:18:03.111Z,62.20
2022-08-03T02:20:33.062Z,62.29
2022-08-03T02:22:59.544Z,62.49
2022-08-03T02:25:26.156Z,62.40
2022-08-03T02:27:56.512Z,62.55
2022-08-03T02:30:30.924Z,62.62
2022-08-03T02:32:58.438Z,62.81
2022-08-03T02:35:29.381Z,62.86
2022-08-03T02:38:02.225Z,63.02
2022-08-03T02:40:30.085Z,62.96
2022-08-03T02:43:01.240Z,63.00
2022-08-03T02:45:29.616Z,63.20
2022-08-03T02:48:00.067Z,62.85
2022-08-03T02:50:28.017Z,62.86
2022-08-03T02:52:55.987Z,63.00
2022-08-03T02:55:25.839Z,63.28
2022-08-03T02:57:52.962Z,63.18
2022-08-03T03:00:28.059Z,63.10
2022-08-03T03:02:58.424Z,63.24
2022-08-03T03:05:51.816Z,63.26
2022-08-03T03:08:17.732Z,63.35
2022-08-03T03:10:46.140Z,63.41
2022-08-03T03:13:15.060Z,63.55
2022-08-03T03:15:43.363Z,63.33
2022-08-03T03:18:10.703Z,63.21
2022-08-03T03:20:38.953Z,63.31
2022-08-03T03:23:06.042Z,63.70
2022-08-03T03:25:33.247Z,63.73
2022-08-03T03:28:01.010Z,63.99
2022-08-03T03:30:27.924Z,63.94
2022-08-03T03:32:55.057Z,64.32
2022-08-03T03:35:21.890Z,64.10
2022-08-03T03:37:48.442Z,63.44
2022-08-03T03:40:15.004Z,63.61
2022-08-03T03:42:41.901Z,63.20
2022-08-03T03:45:09.077Z,63.50
2022-08-03T03:47:35.910Z,63.32
2022-08-03T03:50:04.140Z,63.19
2022-08-03T03:52:31.748Z,63.58
2022-08-03T03:55:01.035Z,63.38
2022-08-03T03:57:28.540Z,63.40
2022-08-03T03:59:55.137Z,63.81
2022-08-03T04:02:21.756Z,63.63
2022-08-03T04:05:06.933Z,63.80
2022-08-03T04:08:04.030Z,63.52
2022-08-03T04:10:52.236Z,63.79
2022-08-03T04:13:21.635Z,63.61
2022-08-03T04:15:49.111Z,63.93
2022-08-03T04:18:17.305Z,64.16
2022-08-03T04:20:48.729Z,63.75
2022-08-03T04:23:21.008Z,63.92
2022-08-03T04:25:50.440Z,63.46
2022-08-03T04:28:30.468Z,63.46
2022-08-03T04:31:01.204Z,64.01
2022-08-03T04:33:31.271Z,64.35
2022-08-03T04:36:03.419Z,64.53
2022-08-03T04:38:32.721Z,64.79
2022-08-03T04:41:00.950Z,64.78
2022-08-03T04:43:32.691Z,64.73
2022-08-03T04:46:00.114Z,65.13
2022-08-03T04:48:27.303Z,65.18
2022-08-03T04:50:54.476Z,64.98
2022-08-03T04:53:21.218Z,64.89
2022-08-03T04:55:48.167Z,65.08
2022-08-03T04:58:14.582Z,64.01
2022-08-03T05:00:41.025Z,63.96
2022-08-03T05:03:20.037Z,64.01
2022-08-03T05:05:52.149Z,64.08
2022-08-03T05:08:20.552Z,64.14
2022-08-03T05:10:54.739Z,64.01
2022-08-03T05:13:21.370Z,63.63
2022-08-03T05:15:47.837Z,63.33
2022-08-03T05:18:14.575Z,63.38
2022-08-03T05:20:41.484Z,62.71
2022-08-03T05:23:07.931Z,62.74
2022-08-03T05:25:34.528Z,62.94
2022-08-03T05:28:01.409Z,62.96
2022-08-03T05:30:33.220Z,62.96
2022-08-03T05:33:00.451Z,62.66
2022-08-03T05:36:01.413Z,62.26
2022-08-03T05:38:15.319Z,62.53
2022-08-03T05:40:57.477Z,62.07
2022-08-03T05:43:37.161Z,62.10
2022-08-03T05:46:12.858Z,61.87
2022-08-03T05:48:40.267Z,61.78
2022-08-03T05:51:07.719Z,61.63
2022-08-03T05:53:34.764Z,61.72
2022-08-03T05:56:03.573Z,61.39
2022-08-03T05:58:42.621Z,61.15
2022-08-03T06:01:09.168Z,60.93
2022-08-03T06:03:35.694Z,60.79
2022-08-03T06:06:02.295Z,60.42
2022-08-03T06:08:28.812Z,60.75
2022-08-03T06:10:55.311Z,60.53
2022-08-03T06:13:22.002Z,60.32
2022-08-03T06:15:48.632Z,60.70
2022-08-03T06:18:15.098Z,60.47
2022-08-03T06:20:41.494Z,60.60
2022-08-03T06:23:08.160Z,60.17
2022-08-03T06:25:43.012Z,59.82
2022-08-03T06:28:19.139Z,59.74
2022-08-03T06:30:55.592Z,59.46
2022-08-03T06:33:22.150Z,59.91
2022-08-03T06:35:48.653Z,59.49
2022-08-03T06:38:15.127Z,59.09
2022-08-03T06:40:41.968Z,59.48
2022-08-03T06:43:12.519Z,58.99
2022-08-03T06:45:39.424Z,58.63
2022-08-03T06:48:08.382Z,58.29
2022-08-03T06:50:36.319Z,58.11
2022-08-03T06:53:04.379Z,58.27
2022-08-03T06:55:32.239Z,57.85
2022-08-03T06:57:59.947Z,57.61
2022-08-03T07:00:31.219Z,57.39
2022-08-03T07:02:58.371Z,56.94
2022-08-03T07:05:25.693Z,56.73
2022-08-03T07:07:56.534Z,56.35
2022-08-03T07:10:23.423Z,56.26
2022-08-03T07:12:55.566Z,55.75
2022-08-03T07:15:38.397Z,56.19
2022-08-03T07:18:10.067Z,56.30
2022-08-03T07:20:36.656Z,54.16
2022-08-03T07:23:03.345Z,54.58
2022-08-03T07:25:29.878Z,54.10
2022-08-03T07:27:56.374Z,53.87
2022-08-03T07:30:23.421Z,53.89
2022-08-03T07:32:50.649Z,54.31
2022-08-03T07:35:24.421Z,53.21
2022-08-03T07:37:54.217Z,53.10
2022-08-03T07:40:22.426Z,53.50
2022-08-03T07:42:52.123Z,52.94
2022-08-03T07:45:23.172Z,52.95
2022-08-03T07:47:53.145Z,52.42
2022-08-03T07:50:20.573Z,52.10
2022-08-03T07:52:50.773Z,52.73
2022-08-03T07:55:20.218Z,52.05
2022-08-03T07:57:47.002Z,51.51
2022-08-03T08:00:17.178Z,50.47
2022-08-03T08:02:44.281Z,51.42
2022-08-03T08:05:11.257Z,51.19
2022-08-03T08:07:38.924Z,49.87
2022-08-03T08:10:08.143Z,50.96
2022-08-03T08:12:34.736Z,50.32
2022-08-03T08:15:01.940Z,50.37
2022-08-03T08:17:28.506Z,50.57
2022-08-03T08:19:54.964Z,49.25
2022-08-03T08:22:29.786Z,49.38
2022-08-03T08:24:58.251Z,48.19
2022-08-03T08:27:24.764Z,48.96
2022-08-03T08:29:55.147Z,48.72
2022-08-03T08:32:23.415Z,48.43
2022-08-03T08:34:50.092Z,46.73
2022-08-03T08:37:16.800Z,45.95
2022-08-03T08:39:43.239Z,45.97
2022-08-03T08:42:10.207Z,46.45
2022-08-03T08:44:36.743Z,46.24
2022-08-03T08:47:03.912Z,46.15
2022-08-03T08:49:32.883Z,47.14
2022-08-03T08:52:01.637Z,46.36
2022-08-03T08:54:30.955Z,46.08
2022-08-03T08:57:02.215Z,45.76
2022-08-03T08:59:48.394Z,46.16
2022-08-03T09:02:16.569Z,46.21
2022-08-03T09:04:45.484Z,46.59
2022-08-03T09:07:20.045Z,46.23
2022-08-03T09:10:11.182Z,46.51
2022-08-03T09:12:41.982Z,46.07
2022-08-03T09:16:00.671Z,46.41
2022-08-03T09:18:33.019Z,46.48
2022-08-03T09:21:38.051Z,46.07
2022-08-03T09:24:12.991Z,45.52
2022-08-03T09:26:50.248Z,45.22
2022-08-03T09:29:20.550Z,45.43
2022-08-03T09:31:47.292Z,45.87
2022-08-03T09:34:17.995Z,45.37
2022-08-03T09:36:47.063Z,45.43
2022-08-03T09:39:15.588Z,46.30
2022-08-03T09:41:44.556Z,45.85
2022-08-03T09:44:24.367Z,46.40
2022-08-03T09:46:56.528Z,45.96
2022-08-03T09:49:23.811Z,46.08
2022-08-03T09:52:32.008Z,46.10
2022-08-03T09:54:37.194Z,45.36
2022-08-03T09:57:03.732Z,45.41
2022-08-03T09:59:32.063Z,45.28
2022-08-03T10:02:00.404Z,45.67
2022-08-03T10:04:27.719Z,45.47
2022-08-03T10:07:09.312Z,45.53
2022-08-03T10:09:37.440Z,44.85
2022-08-03T10:12:12.208Z,44.20
2022-08-03T10:14:40.514Z,44.45
2022-08-03T10:17:07.079Z,44.46
2022-08-03T10:19:34.014Z,44.02
2022-08-03T10:22:15.839Z,44.33
2022-08-03T10:24:59.220Z,43.52
2022-08-03T10:27:32.042Z,44.48
2022-08-03T10:30:03.671Z,44.35
2022-08-03T10:32:42.383Z,42.28
2022-08-03T10:35:19.550Z,42.55
2022-08-03T10:38:01.808Z,42.31
2022-08-03T10:40:49.602Z,40.91
2022-08-03T10:43:21.648Z,41.07
2022-08-03T10:45:48.989Z,40.55
2022-08-03T10:48:17.848Z,41.25
2022-08-03T10:50:44.956Z,38.00
2022-08-03T10:53:11.672Z,39.01
2022-08-03T10:56:05.629Z,37.55
2022-08-03T10:58:38.187Z,35.19
2022-08-03T11:01:58.962Z,30.23
2022-08-03T11:04:29.222Z,29.04
2022-08-03T11:07:22.823Z,27.94
2022-08-03T11:09:56.489Z,28.22
2022-08-03T11:12:30.393Z,27.42
2022-08-03T11:15:01.219Z,24.70
2022-08-03T11:17:27.949Z,24.73
2022-08-03T11:19:57.785Z,25.26
2022-08-03T11:22:25.748Z,25.65
2022-08-03T11:24:54.291Z,25.88
2022-08-03T11:27:23.236Z,24.07
2022-08-03T11:30:11.266Z,24.09
2022-08-03T11:32:37.609Z,24.02
2022-08-03T11:35:21.643Z,23.10
2022-08-03T11:38:01.508Z,24.22
2022-08-03T11:40:52.904Z,24.60
2022-08-03T11:43:22.671Z,22.20
2022-08-03T11:46:03.694Z,20.41
2022-08-03T11:48:37.368Z,19.51
2022-08-03T11:51:18.763Z,16.79
2022-08-03T11:53:47.718Z,17.08
2022-08-03T11:56:14.252Z,18.18
2022-08-03T11:59:00.985Z,19.18
2022-08-03T12:01:40.353Z,21.46
2022-08-03T12:04:08.011Z,21.39
2022-08-03T12:06:54.419Z,18.95
2022-08-03T12:09:21.442Z,18.89
2022-08-03T12:11:59.824Z,18.85
2022-08-03T12:14:50.625Z,17.27
2022-08-03T12:17:16.203Z,17.77
2022-08-03T12:19:43.798Z,17.53
2022-08-03T12:22:10.229Z,17.75
2022-08-03T12:24:46.806Z,18.08
2022-08-03T12:27:26.422Z,17.93
2022-08-03T12:29:58.965Z,16.80
2022-08-03T12:32:27.170Z,16.71
2022-08-03T12:34:53.657Z,17.10
2022-08-03T12:37:22.777Z,15.90
2022-08-03T12:40:00.429Z,16.34
2022-08-03T12:42:36.544Z,16.43
2022-08-03T12:45:27.380Z,16.16
2022-08-03T12:47:56.626Z,15.91
2022-08-03T12:50:34.236Z,17.76
2022-08-03T12:53:03.878Z,18.75
2022-08-03T12:55:57.802Z,20.00
2022-08-03T12:58:38.132Z,21.61
2022-08-03T13:01:09.133Z,22.32
2022-08-03T13:03:42.276Z,23.59
2022-08-03T13:06:14.649Z,21.62
2022-08-03T13:08:42.782Z,21.58
2022-08-03T13:11:43.481Z,22.34
2022-08-03T13:14:13.607Z,22.27
2022-08-03T13:16:46.410Z,23.41
2022-08-03T13:19:15.687Z,24.55
2022-08-03T13:21:53.523Z,26.07
2022-08-03T13:24:30.418Z,26.56
2022-08-03T13:26:57.774Z,27.54
2022-08-03T13:29:24.202Z,27.49
2022-08-03T13:31:51.448Z,27.89
2022-08-03T13:34:22.965Z,27.80
2022-08-03T13:37:08.413Z,28.20
2022-08-03T13:39:57.598Z,28.32
2022-08-03T13:42:22.852Z,28.73
2022-08-03T13:44:49.341Z,28.84
2022-08-03T13:47:16.249Z,29.56
2022-08-03T13:49:42.889Z,31.35
2022-08-03T13:52:26.000Z,30.19
2022-08-03T13:54:52.466Z,30.56
2022-08-03T13:58:02.873Z,30.93
2022-08-03T14:00:06.593Z,31.93
2022-08-03T14:02:33.105Z,31.66
2022-08-03T14:04:59.587Z,32.58
2022-08-03T14:07:26.166Z,31.62
2022-08-03T14:09:52.753Z,31.94
2022-08-03T14:12:19.161Z,32.89
2022-08-03T14:14:45.725Z,31.78
2022-08-03T14:17:12.972Z,32.52
2022-08-03T14:19:52.443Z,32.49
2022-08-03T14:22:24.293Z,33.19
2022-08-03T14:24:51.001Z,32.58
2022-08-03T14:27:18.088Z,32.79
2022-08-03T14:29:44.688Z,33.65
2022-08-03T14:32:13.550Z,32.49
2022-08-03T14:34:40.868Z,32.89
2022-08-03T14:37:07.559Z,32.73
2022-08-03T14:42:20.699Z,32.68
2022-08-03T14:44:47.578Z,32.16
2022-08-03T14:47:14.721Z,33.30
2022-08-03T14:50:37.374Z,32.72
2022-08-03T14:52:28.150Z,33.23
2022-08-03T14:54:54.615Z,32.59
2022-08-03T14:57:21.563Z,33.81
2022-08-03T14:59:56.235Z,33.60
2022-08-03T15:02:24.527Z,33.66
2022-08-03T15:04:51.681Z,33.22
2022-08-03T15:07:18.586Z,33.29
2022-08-03T15:09:45.140Z,34.09
2022-08-03T15:12:11.870Z,32.73
2022-08-03T15:14:38.307Z,32.64
2022-08-03T15:17:05.406Z,34.30
2022-08-03T15:20:01.682Z,33.30
2022-08-03T15:22:20.466Z,33.84
2022-08-03T15:24:47.530Z,34.26
2022-08-03T15:27:13.942Z,34.25
2022-08-03T15:30:08.093Z,34.26
2022-08-03T15:32:27.221Z,35.09
2022-08-03T15:34:55.301Z,34.99
2022-08-03T15:37:21.831Z,35.86
2022-08-03T15:39:59.862Z,35.67
2022-08-03T15:42:29.185Z,34.68
2022-08-03T15:44:55.910Z,35.10
2022-08-03T15:47:22.653Z,35.71
2022-08-03T15:49:49.414Z,35.03
2022-08-03T15:52:15.979Z,35.65
2022-08-03T15:54:42.426Z,35.68
2022-08-03T15:57:08.873Z,34.72
2022-08-03T15:59:35.301Z,35.35
2022-08-03T16:02:01.893Z,34.95
2022-08-03T16:04:28.614Z,36.62
2022-08-03T16:06:55.050Z,35.76
2022-08-03T16:09:24.279Z,36.70
2022-08-03T16:12:14.417Z,35.59
2022-08-03T16:14:51.869Z,35.68
2022-08-03T16:17:20.346Z,35.43
2022-08-03T16:19:47.102Z,36.25
2022-08-03T16:22:14.450Z,36.57
2022-08-03T16:24:41.245Z,37.07
2022-08-03T16:27:17.632Z,36.03
2022-08-03T16:29:54.880Z,36.45
2022-08-03T16:32:21.375Z,36.01
2022-08-03T16:34:48.131Z,35.79
2022-08-03T16:37:37.527Z,36.45
2022-08-03T16:40:02.677Z,35.01
2022-08-03T16:42:29.377Z,35.60
2022-08-03T16:44:55.857Z,36.82
2022-08-03T16:47:22.947Z,36.16
2022-08-03T16:49:53.101Z,37.19
2022-08-03T16:52:22.869Z,36.44
2022-08-03T16:54:53.224Z,35.64
2022-08-03T16:57:56.280Z,35.14
2022-08-03T17:00:12.534Z,36.12
2022-08-03T17:03:00.626Z,35.45
2022-08-03T17:05:28.888Z,35.01
2022-08-03T17:08:12.708Z,35.90
2022-08-03T17:10:42.347Z,35.08
2022-08-03T17:13:12.985Z,36.43
2022-08-03T17:16:01.550Z,36.64
2022-08-03T17:18:37.673Z,36.91
2022-08-03T17:21:09.459Z,37.22
2022-08-03T17:23:46.326Z,37.80
2022-08-03T17:26:21.182Z,38.02
2022-08-03T17:28:57.904Z,37.35
2022-08-03T17:31:31.153Z,37.81
2022-08-03T17:34:01.193Z,38.58
2022-08-03T17:36:54.021Z,37.71
2022-08-03T17:39:19.321Z,39.13
2022-08-03T17:41:55.392Z,38.19
2022-08-03T17:44:33.202Z,37.39
2022-08-03T17:47:08.729Z,39.23
2022-08-03T17:49:40.097Z,39.20
2022-08-03T17:52:28.577Z,39.54
2022-08-03T17:55:57.093Z,38.79
2022-08-03T17:58:11.569Z,39.95
2022-08-03T18:00:59.497Z,41.24
2022-08-03T18:03:57.820Z,41.42
2022-08-03T18:06:31.187Z,41.03
2022-08-03T18:08:59.957Z,41.12
2022-08-03T18:11:35.687Z,41.39
2022-08-03T18:14:26.961Z,42.26
2022-08-03T18:17:00.509Z,41.98
2022-08-03T18:20:02.903Z,42.16
2022-08-03T18:22:20.994Z,42.35
2022-08-03T18:24:51.998Z,42.86
2022-08-03T18:27:20.526Z,42.44
2022-08-03T18:29:49.380Z,43.45
2022-08-03T18:32:16.886Z,43.22
2022-08-03T18:34:53.116Z,43.74
2022-08-03T18:37:25.182Z,43.65
2022-08-03T18:39:55.439Z,44.25
2022-08-03T18:42:26.270Z,43.92
2022-08-03T18:44:56.211Z,45.01
2022-08-03T18:47:53.149Z,44.99
2022-08-03T18:50:29.378Z,45.12
2022-08-03T18:53:19.783Z,45.45
2022-08-03T18:56:02.391Z,46.04
2022-08-03T18:58:47.740Z,44.96
2022-08-03T19:02:01.045Z,44.60
2022-08-03T19:04:41.423Z,45.76
2022-08-03T19:07:16.586Z,45.11
2022-08-03T19:10:15.763Z,45.45
2022-08-03T19:12:45.474Z,46.06
2022-08-03T19:15:15.731Z,45.89
2022-08-03T19:17:53.159Z,46.08
2022-08-03T19:20:30.723Z,46.82
2022-08-03T19:22:59.101Z,47.01
2022-08-03T19:25:33.359Z,47.27
2022-08-03T19:28:04.205Z,47.37
2022-08-03T19:30:39.028Z,47.71
2022-08-03T19:33:09.159Z,47.94
2022-08-03T19:35:52.159Z,48.48
2022-08-03T19:38:28.238Z,48.96
2022-08-03T19:40:58.121Z,48.96
2022-08-03T19:43:53.836Z,49.25
2022-08-03T19:46:21.875Z,48.95
2022-08-03T19:49:02.956Z,49.43
2022-08-03T19:52:00.839Z,49.58
2022-08-03T19:54:29.656Z,49.77
2022-08-03T19:57:00.235Z,49.86
2022-08-03T19:59:29.407Z,50.11
2022-08-03T20:01:55.780Z,49.74
2022-08-03T20:04:26.334Z,49.92
2022-08-03T20:06:56.942Z,50.19
2022-08-03T20:09:23.882Z,50.01
2022-08-03T20:11:57.197Z,50.91
2022-08-03T20:14:26.621Z,50.98
2022-08-03T20:16:53.552Z,50.77
2022-08-03T20:19:20.159Z,51.19
2022-08-03T20:21:49.879Z,51.08
2022-08-03T20:24:24.216Z,51.28
2022-08-03T20:26:53.549Z,51.54
2022-08-03T20:30:05.329Z,51.42
2022-08-03T20:32:18.681Z,51.79
2022-08-03T20:34:50.973Z,51.72
2022-08-03T20:37:19.551Z,52.00
2022-08-03T20:39:48.201Z,52.14
2022-08-03T20:42:21.112Z,52.53
2022-08-03T20:45:06.196Z,52.43
2022-08-03T20:47:36.100Z,52.75
2022-08-03T20:50:04.416Z,53.24
2022-08-03T20:52:37.120Z,53.17
2022-08-03T20:55:16.837Z,53.42
2022-08-03T20:57:43.518Z,53.34
2022-08-03T21:00:19.464Z,53.80
2022-08-03T21:02:48.945Z,53.51
2022-08-03T21:05:15.499Z,53.89
2022-08-03T21:08:05.189Z,54.11
2022-08-03T21:10:33.832Z,54.39
2022-08-03T21:13:18.244Z,54.57
2022-08-03T21:16:11.482Z,54.97
2022-08-03T21:18:44.450Z,55.14
2022-08-03T21:21:15.256Z,55.35
2022-08-03T21:23:48.576Z,55.11
2022-08-03T21:26:18.034Z,55.53
2022-08-03T21:28:46.971Z,55.40
2022-08-03T21:31:13.881Z,55.61
2022-08-03T21:33:40.979Z,56.05
2022-08-03T21:36:14.411Z,56.34
2022-08-03T21:38:43.776Z,56.66
2022-08-03T21:41:14.078Z,56.86
2022-08-03T21:43:40.591Z,56.79
2022-08-03T21:46:07.830Z,56.85
2022-08-03T21:48:38.447Z,57.31
2022-08-03T21:51:06.809Z,57.35
2022-08-03T21:54:02.612Z,57.20
2022-08-03T21:56:22.488Z,57.36
2022-08-03T21:59:06.051Z,57.40
2022-08-03T22:01:35.581Z,57.73
2022-08-03T22:04:06.930Z,57.98
2022-08-03T22:06:33.933Z,58.62
2022-08-03T22:09:01.087Z,58.55
2022-08-03T22:11:28.674Z,58.58
2022-08-03T22:13:55.269Z,58.96
2022-08-03T22:16:22.098Z,58.75
2022-08-03T22:18:48.706Z,58.56
2022-08-03T22:21:17.036Z,59.46
2022-08-03T22:23:59.013Z,59.88
2022-08-03T22:26:32.480Z,59.68
2022-08-03T22:29:06.854Z,59.94
2022-08-03T22:31:59.017Z,60.24
2022-08-03T22:34:26.404Z,60.17
2022-08-03T22:36:57.195Z,59.84
2022-08-03T22:39:28.388Z,60.16
2022-08-03T22:41:57.762Z,60.22
2022-08-03T22:44:25.496Z,60.57
2022-08-03T22:46:52.279Z,60.78
2022-08-03T22:49:19.493Z,60.87
2022-08-03T22:51:46.043Z,60.75
2022-08-03T22:54:12.560Z,60.84
2022-08-03T22:56:39.158Z,61.22
2022-08-03T22:59:39.932Z,60.84
2022-08-03T23:01:59.911Z,61.06
2022-08-03T23:04:28.477Z,61.43
2022-08-03T23:06:57.653Z,61.95
2022-08-03T23:09:24.597Z,61.73
2022-08-03T23:11:55.184Z,61.65
2022-08-03T23:14:23.161Z,61.88
2022-08-03T23:16:53.340Z,62.38
2022-08-03T23:19:25.549Z,62.12
2022-08-03T23:22:02.944Z,62.29
2022-08-03T23:24:34.032Z,62.48
2022-08-03T23:27:02.967Z,62.15
2022-08-03T23:29:31.461Z,62.43
2022-08-03T23:31:59.529Z,62.45
2022-08-03T23:34:46.741Z,62.36
2022-08-03T23:37:15.329Z,62.40
2022-08-03T23:39:45.053Z,63.19
2022-08-03T23:42:14.904Z,63.37
2022-08-03T23:44:43.740Z,63.36
2022-08-03T23:47:11.319Z,62.81
2022-08-03T23:49:37.941Z,63.52
2022-08-03T23:52:15.555Z,63.03
2022-08-03T23:54:58.619Z,63.39
2022-08-03T23:57:37.782Z,63.45
